Airport View

Enter AWOS ICAO identifier for current METAR.

ex. KFNL

KCIC 171205Z AUTO 09004KT 10SM CLR 09/05 A3014 RMK AO1

17 Nov 2019 12:12

Frequency: 119.675

Phone: 530-879-3850

Other Area AWOS: KOVE - KRBL - KMYV - KBAB

TAF KRBL 171120Z 1712/1812 33007KT P6SM SKC